Bremerton, WA (98310)

10:24 PM PST on February 11, 2016 (GMT -0800)
Roswell Drive | | Change Station
CLOSE
Current Station
Personal Weather Station
Location: Bremerton, WA
Elevation: 368 ft
Nearby Weather Stations

Elev 368 ft 47.60 °N, 122.63 °W | Updated 13 minutes ago

Rain
Rain
50.2 °F
Feels Like 50.2 °F
N
0.0
Wind Variable Wind from ENE

Today
High -- | Low -- °F
--% Chance of Precip.
Yesterday
High -- | Low -- °F
Precip. -- in
Pressure 30.13 in
Visibility 3.0 miles
Clouds Mostly Cloudy 300 ft
Overcast 1000 ft
Dew Point 50 °F
Humidity 99%
Rainfall 0.49 in
Snow Depth Not available.
7:23 AM 5:26 PM
Waxing Crescent, 18% visible
METAR KPWT 120615Z AUTO 00000KT 3SM BKN003 OVC010 09/09 A3013 RMK AO1
Pressure 30.13 in
Visibility 3.0 miles
Clouds Mostly Cloudy 300 ft
Overcast 1000 ft
Dew Point 50 °F
Humidity 99%
Rainfall 0.49 in
Snow Depth Not available.
7:23 AM 5:26 PM
Waxing Crescent, 18% visible
METAR KPWT 120615Z AUTO 00000KT 3SM BKN003 OVC010 09/09 A3013 RMK AO1

10-Day Weather Forecast

Almanac

Astronomy

Feb. 11, 2016 Rise Set
Actual Time
Civil Twilight
Nautical Twilight
Astronomical Twilight
Moon
Length of Visible Light
Length of Day
Tomorrow will be .
, % of the Moon is Illuminated

Today's Extremes

State Highs State Lows

Community

WunderPhotos

Upload Photos

1,892,276 photos uploaded!

WunderBlog® & News

Nearby

Air Quality

  Air Quality AQ Index Pollutant
Not available.

Snow Depth

Station Depth Elevation

Earthquake Activity

City Distance Mag. Time & Date
Minimum magnitude displayed is 2.5.

Coastal Water Temperatures

Place Temperature

Stations

Nearby Weather Stations

Station Location Temp. Windchill Dew Point Humidity Wind Precip. Elev Updated Type
                   

Watches & Warnings

There are currently no watches in effect.